Time;durP1;ratioP1;P1;durP2;ratioP2;P2;SDS_P1;SDS_P2;PMS_P1;PMS_P2;Temp;Humidity;BMP_temperature;BMP_pressure;BME280_temperature;BME280_humidity;BME280_pressure;Samples;Min_cycle;Max_cycle;Signal;HPM_P1;HPM_P2
2024/03/22 00:01:40;;;;;;;11.68;6.47;;;9.90;99.90;;;;;;5060598;28;20110;-66
2024/03/22 00:04:06;;;;;;;11.13;6.95;;;10.00;99.90;;;;;;5064819;28;20036;-66
2024/03/22 00:06:32;;;;;;;13.13;8.10;;;9.90;99.90;;;;;;5064996;28;20032;-66
2024/03/22 00:08:58;;;;;;;13.02;7.20;;;9.90;99.90;;;;;;5067762;28;20083;-66
2024/03/22 00:11:23;;;;;;;13.80;7.40;;;9.90;99.90;;;;;;5057607;28;21095;-65
2024/03/22 00:13:49;;;;;;;13.45;7.65;;;9.80;99.90;;;;;;5062779;28;20054;-65
2024/03/22 00:16:15;;;;;;;12.30;7.70;;;9.80;99.90;;;;;;5065049;28;20032;-71
2024/03/22 00:18:41;;;;;;;11.70;6.60;;;9.80;99.90;;;;;;5066773;28;20063;-71
2024/03/22 00:21:06;;;;;;;13.77;7.15;;;9.90;99.90;;;;;;5057652;28;20033;-71
2024/03/22 00:23:32;;;;;;;16.20;8.43;;;9.90;99.90;;;;;;5072188;28;20028;-71
2024/03/22 00:25:58;;;;;;;13.10;8.02;;;9.90;99.90;;;;;;5067110;28;20025;-71
2024/03/22 00:28:24;;;;;;;19.35;8.80;;;9.90;99.90;;;;;;5070476;28;20472;-71
2024/03/22 00:30:49;;;;;;;13.68;8.18;;;9.80;99.90;;;;;;5067815;28;20490;-71
2024/03/22 00:33:15;;;;;;;13.82;7.15;;;9.80;99.90;;;;;;5066116;28;20033;-71
2024/03/22 00:35:41;;;;;;;12.40;6.65;;;9.80;99.90;;;;;;5070926;28;20062;-71
2024/03/22 00:38:06;;;;;;;15.90;7.72;;;9.80;99.90;;;;;;5070776;28;20032;-71
2024/03/22 00:40:33;;;;;;;13.35;7.70;;;9.90;99.90;;;;;;5070039;28;20041;-71
2024/03/22 00:42:59;;;;;;;20.08;8.88;;;9.90;99.90;;;;;;5069551;28;20063;-71
2024/03/22 00:45:25;;;;;;;17.50;9.20;;;9.90;99.90;;;;;;5073922;28;20535;-71
2024/03/22 00:47:50;;;;;;;18.05;9.38;;;9.90;99.90;;;;;;5074154;28;20158;-71
2024/03/22 00:50:16;;;;;;;21.98;9.68;;;9.90;99.90;;;;;;5066059;28;20024;-66
2024/03/22 00:52:42;;;;;;;18.55;9.30;;;9.90;99.90;;;;;;5064403;28;20181;-65
2024/03/22 00:55:08;;;;;;;20.92;9.98;;;9.80;99.90;;;;;;5069589;28;20539;-65
2024/03/22 00:57:34;;;;;;;20.08;9.35;;;9.80;99.90;;;;;;5068097;28;20108;-65
2024/03/22 00:59:59;;;;;;;17.65;7.80;;;9.70;99.90;;;;;;5060997;28;20762;-66
2024/03/22 01:02:25;;;;;;;21.02;9.73;;;9.60;99.90;;;;;;5068344;28;20024;-66
2024/03/22 01:04:51;;;;;;;17.35;8.45;;;9.70;99.90;;;;;;5064172;28;20431;-66
2024/03/22 01:07:17;;;;;;;17.77;8.77;;;9.60;99.90;;;;;;5063115;28;20481;-66
2024/03/22 01:09:44;;;;;;;17.23;8.60;;;9.60;99.90;;;;;;5064532;28;20029;-66
2024/03/22 01:12:10;;;;;;;17.45;8.90;;;9.50;99.90;;;;;;5069358;28;20111;-65
2024/03/22 01:14:36;;;;;;;19.70;9.20;;;9.50;99.90;;;;;;5067108;28;20834;-66
2024/03/22 01:17:02;;;;;;;19.15;8.32;;;9.50;99.90;;;;;;5065270;28;20136;-66
2024/03/22 01:19:28;;;;;;;19.88;8.43;;;9.50;99.90;;;;;;5072348;28;20031;-65
2024/03/22 01:21:53;;;;;;;16.85;8.90;;;9.60;99.90;;;;;;5071471;28;20044;-65
2024/03/22 01:24:19;;;;;;;19.15;9.15;;;9.50;99.90;;;;;;5066752;28;20514;-65
2024/03/22 01:26:45;;;;;;;16.42;8.13;;;9.40;99.90;;;;;;5063118;28;20091;-65
2024/03/22 01:29:11;;;;;;;20.92;9.00;;;9.40;99.90;;;;;;5068205;28;20376;-65
2024/03/22 01:31:36;;;;;;;18.08;8.93;;;9.40;99.90;;;;;;5065103;28;20017;-65
2024/03/22 01:34:02;;;;;;;18.77;8.55;;;9.40;99.90;;;;;;5062013;28;20118;-66
2024/03/22 01:36:28;;;;;;;22.60;10.05;;;9.50;99.90;;;;;;5064600;28;20519;-65
2024/03/22 01:38:53;;;;;;;18.20;8.93;;;9.50;99.90;;;;;;5067708;28;20111;-65
2024/03/22 01:41:19;;;;;;;21.80;8.82;;;9.60;99.90;;;;;;5063704;28;20479;-65
2024/03/22 01:43:45;;;;;;;18.00;8.52;;;9.60;99.90;;;;;;5057948;28;20036;-65
2024/03/22 01:46:11;;;;;;;17.45;8.93;;;9.70;99.90;;;;;;5065640;28;20056;-65
2024/03/22 01:48:37;;;;;;;19.65;10.07;;;9.70;99.90;;;;;;5068713;28;20025;-65
2024/03/22 01:51:05;;;;;;;17.83;9.13;;;9.70;99.90;;;;;;5064300;28;20028;-66
2024/03/22 01:53:32;;;;;;;20.02;9.05;;;9.60;99.90;;;;;;5069354;28;20032;-65
2024/03/22 01:55:58;;;;;;;18.52;9.23;;;9.60;99.90;;;;;;5069587;28;20058;-65
2024/03/22 01:58:24;;;;;;;22.60;9.60;;;9.50;99.90;;;;;;5066566;28;20024;-65
2024/03/22 02:00:50;;;;;;;19.25;8.95;;;9.50;99.90;;;;;;5066851;28;20051;-66
2024/03/22 02:03:16;;;;;;;22.42;9.07;;;9.50;99.90;;;;;;5067159;28;20036;-66
2024/03/22 02:05:41;;;;;;;20.77;9.57;;;9.60;99.90;;;;;;5065149;28;20106;-65
2024/03/22 02:08:07;;;;;;;18.77;8.50;;;9.60;99.90;;;;;;5063130;28;20013;-66
2024/03/22 02:10:33;;;;;;;18.27;9.13;;;9.70;99.90;;;;;;5071869;28;20127;-65
2024/03/22 02:12:59;;;;;;;17.73;8.18;;;9.70;99.90;;;;;;5068514;28;20819;-66
2024/03/22 02:15:25;;;;;;;18.45;8.98;;;9.60;99.90;;;;;;5062366;28;20032;-65
2024/03/22 02:17:50;;;;;;;21.58;9.27;;;9.60;99.90;;;;;;5062160;28;21424;-65
2024/03/22 02:20:16;;;;;;;19.05;8.82;;;9.50;99.90;;;;;;5065113;28;20028;-65
2024/03/22 02:22:42;;;;;;;19.50;9.10;;;9.50;99.90;;;;;;5069583;28;20032;-71
2024/03/22 02:25:08;;;;;;;18.30;9.38;;;9.40;99.90;;;;;;5063318;28;20795;-72
2024/03/22 02:27:34;;;;;;;18.17;8.73;;;9.30;99.90;;;;;;5069122;28;20099;-70
2024/03/22 02:30:00;;;;;;;16.90;8.95;;;9.10;99.90;;;;;;5064721;28;20467;-70
2024/03/22 02:32:26;;;;;;;18.65;9.48;;;9.10;99.90;;;;;;5067469;28;20025;-71
2024/03/22 02:34:51;;;;;;;22.70;9.30;;;9.00;99.90;;;;;;5066301;28;20020;-70
2024/03/22 02:37:17;;;;;;;20.77;9.80;;;9.00;99.90;;;;;;5071402;28;20107;-71
2024/03/22 02:39:43;;;;;;;18.95;8.98;;;9.10;99.90;;;;;;5074180;28;20165;-71
2024/03/22 02:42:08;;;;;;;20.38;8.98;;;9.10;99.90;;;;;;5062933;28;20052;-71
2024/03/22 02:44:38;;;;;;;16.67;8.02;;;9.20;99.90;;;;;;5069892;28;20032;-70
2024/03/22 02:47:04;;;;;;;19.75;8.55;;;9.20;99.90;;;;;;5069311;28;20522;-70
2024/03/22 02:49:29;;;;;;;18.92;8.65;;;9.30;99.90;;;;;;5067583;28;20036;-70
2024/03/22 02:51:55;;;;;;;22.00;9.73;;;9.30;99.90;;;;;;5068382;28;20033;-71
2024/03/22 02:54:21;;;;;;;18.98;8.70;;;9.20;99.90;;;;;;5063365;28;20032;-71
2024/03/22 02:56:47;;;;;;;17.15;9.07;;;9.10;99.90;;;;;;5064693;28;20459;-71
2024/03/22 02:59:12;;;;;;;18.67;8.05;;;9.20;99.90;;;;;;5069186;28;20024;-71
2024/03/22 03:01:38;;;;;;;19.85;8.70;;;9.20;99.90;;;;;;5066823;28;20501;-70
2024/03/22 03:04:04;;;;;;;16.08;8.13;;;9.20;99.90;;;;;;5068674;28;20776;-71
2024/03/22 03:06:30;;;;;;;14.10;7.47;;;9.20;99.90;;;;;;5058695;28;20029;-70
2024/03/22 03:08:55;;;;;;;21.27;9.35;;;9.10;99.90;;;;;;5072069;28;20032;-70
2024/03/22 03:11:21;;;;;;;16.13;8.10;;;9.00;99.90;;;;;;5063389;28;20024;-70
2024/03/22 03:13:47;;;;;;;18.55;8.80;;;8.80;99.90;;;;;;5066469;28;20043;-70
2024/03/22 03:16:13;;;;;;;15.32;7.75;;;8.70;99.90;;;;;;5064668;28;20794;-70
2024/03/22 03:18:39;;;;;;;16.90;8.77;;;8.80;99.90;;;;;;5071090;28;20044;-71
2024/03/22 03:21:05;;;;;;;19.40;9.10;;;8.90;99.90;;;;;;5070887;28;20050;-70
2024/03/22 03:23:31;;;;;;;18.80;9.40;;;8.90;99.90;;;;;;5063972;28;20495;-70
2024/03/22 03:25:56;;;;;;;17.17;8.68;;;9.00;99.90;;;;;;5068305;28;20888;-71
2024/03/22 03:28:22;;;;;;;16.25;8.00;;;9.00;99.90;;;;;;5066129;28;20827;-70
2024/03/22 03:30:48;;;;;;;17.48;7.90;;;9.00;99.90;;;;;;5065357;28;20403;-70
2024/03/22 03:33:14;;;;;;;12.90;7.03;;;9.00;99.90;;;;;;5067057;28;20812;-71
2024/03/22 03:35:39;;;;;;;16.05;7.80;;;9.00;99.90;;;;;;5065706;28;20782;-65
2024/03/22 03:38:05;;;;;;;20.23;8.40;;;9.00;99.90;;;;;;5062202;28;20029;-66
2024/03/22 03:40:31;;;;;;;15.93;7.90;;;9.00;99.90;;;;;;5059715;28;20136;-66
2024/03/22 03:42:56;;;;;;;14.98;7.80;;;8.90;99.90;;;;;;5069398;28;20027;-65
2024/03/22 03:45:22;;;;;;;20.38;8.00;;;8.80;99.90;;;;;;5065276;28;20028;-65
2024/03/22 03:47:48;;;;;;;17.48;8.52;;;8.90;99.90;;;;;;5063053;28;20031;-65
2024/03/22 03:50:14;;;;;;;19.88;9.00;;;9.00;99.90;;;;;;5064780;28;20028;-66
2024/03/22 03:52:39;;;;;;;16.65;7.95;;;9.00;99.90;;;;;;5067895;28;20028;-66
2024/03/22 03:55:06;;;;;;;18.17;8.98;;;9.10;99.90;;;;;;5063148;28;20029;-66
2024/03/22 03:57:31;;;;;;;20.17;8.55;;;9.00;99.90;;;;;;5066745;28;20028;-66
2024/03/22 03:59:57;;;;;;;18.02;7.68;;;9.00;99.90;;;;;;5069109;28;20080;-66
2024/03/22 04:02:23;;;;;;;19.25;8.48;;;9.10;99.90;;;;;;5063238;28;20063;-65
2024/03/22 04:04:52;;;;;;;13.23;7.13;;;9.10;99.90;;;;;;5059485;28;20037;-66
2024/03/22 04:07:19;;;;;;;16.75;8.13;;;9.10;99.90;;;;;;5061619;28;20119;-65
2024/03/22 04:09:44;;;;;;;19.33;7.80;;;9.20;99.90;;;;;;5060527;28;20104;-65
2024/03/22 04:12:10;;;;;;;15.63;7.45;;;9.20;99.90;;;;;;5060605;28;21017;-65
2024/03/22 04:14:36;;;;;;;19.35;7.80;;;9.10;99.90;;;;;;5061617;28;20090;-66
2024/03/22 04:17:02;;;;;;;17.75;7.93;;;9.10;99.90;;;;;;5063852;28;20715;-70
2024/03/22 04:19:27;;;;;;;15.75;7.40;;;9.10;99.90;;;;;;5064008;28;20062;-71
2024/03/22 04:21:53;;;;;;;17.50;7.63;;;9.00;99.90;;;;;;5063154;28;20037;-70
2024/03/22 04:24:19;;;;;;;14.40;7.07;;;9.00;99.90;;;;;;5064114;28;20036;-70
2024/03/22 04:26:45;;;;;;;13.63;6.35;;;9.10;99.90;;;;;;5067827;28;20027;-70
2024/03/22 04:29:10;;;;;;;14.45;7.30;;;9.20;99.90;;;;;;5068836;28;20169;-70
2024/03/22 04:31:36;;;;;;;14.40;7.65;;;9.30;99.90;;;;;;5065956;28;20130;-70
2024/03/22 04:34:02;;;;;;;14.38;8.88;;;9.20;99.90;;;;;;5068578;28;20040;-66
2024/03/22 04:36:28;;;;;;;16.48;7.07;;;9.30;99.90;;;;;;5061901;28;20028;-65
2024/03/22 04:38:54;;;;;;;12.52;6.90;;;9.30;99.90;;;;;;5061444;28;20090;-66
2024/03/22 04:41:20;;;;;;;15.95;7.20;;;9.30;99.90;;;;;;5066372;28;20035;-66
2024/03/22 04:43:46;;;;;;;17.17;7.15;;;9.40;99.90;;;;;;5068029;28;20025;-65
2024/03/22 04:46:12;;;;;;;15.90;7.80;;;9.50;99.90;;;;;;5060264;28;20047;-65
2024/03/22 04:48:38;;;;;;;17.25;7.10;;;9.50;99.90;;;;;;5057734;28;20036;-65
2024/03/22 04:51:04;;;;;;;14.27;7.35;;;9.50;99.90;;;;;;5067081;28;20024;-65
2024/03/22 04:53:30;;;;;;;15.65;7.63;;;9.50;99.90;;;;;;5067165;28;20044;-65
2024/03/22 04:55:56;;;;;;;11.68;7.50;;;9.60;99.90;;;;;;5065938;28;20037;-66
2024/03/22 04:58:22;;;;;;;14.60;7.60;;;9.70;99.90;;;;;;5063078;28;20547;-65
2024/03/22 05:00:48;;;;;;;14.73;7.18;;;9.80;99.90;;;;;;5068877;28;20377;-66
2024/03/22 05:03:15;;;;;;;14.65;7.55;;;10.00;99.90;;;;;;5059875;28;20067;-66
2024/03/22 05:05:42;;;;;;;16.55;7.93;;;10.00;99.90;;;;;;5061347;28;20039;-66
2024/03/22 05:08:08;;;;;;;13.18;7.47;;;10.00;99.90;;;;;;5068293;28;20115;-66
2024/03/22 05:10:34;;;;;;;12.80;7.07;;;10.00;99.90;;;;;;5067938;28;20797;-65
2024/03/22 05:13:00;;;;;;;18.13;8.27;;;10.00;99.90;;;;;;5070424;28;20040;-66
2024/03/22 05:15:26;;;;;;;13.27;7.28;;;10.10;99.90;;;;;;5067631;28;20038;-65
2024/03/22 05:17:52;;;;;;;23.38;7.93;;;9.80;99.90;;;;;;5065197;28;20025;-66
2024/03/22 05:20:19;;;;;;;15.48;6.47;;;9.70;99.90;;;;;;5064272;28;20031;-65
2024/03/22 05:22:46;;;;;;;17.17;7.40;;;9.60;99.90;;;;;;5066442;28;20024;-65
2024/03/22 05:25:12;;;;;;;14.43;7.70;;;9.60;99.90;;;;;;5068126;28;20392;-66
2024/03/22 05:27:38;;;;;;;13.13;6.90;;;9.70;99.90;;;;;;5066344;28;20029;-66
2024/03/22 05:30:04;;;;;;;14.65;7.72;;;9.70;99.90;;;;;;5064498;28;20036;-66
2024/03/22 05:32:30;;;;;;;15.25;7.20;;;9.50;99.90;;;;;;5072449;28;20088;-65
2024/03/22 05:34:56;;;;;;;14.73;7.30;;;9.40;99.90;;;;;;5067750;28;20044;-65
2024/03/22 05:37:22;;;;;;;15.95;7.15;;;9.50;99.90;;;;;;5063332;28;20035;-65
2024/03/22 05:39:48;;;;;;;16.80;7.43;;;9.60;99.90;;;;;;5068639;28;20044;-65
2024/03/22 05:42:14;;;;;;;16.95;7.88;;;9.60;99.90;;;;;;5070736;28;20040;-65
2024/03/22 05:44:40;;;;;;;15.20;6.47;;;9.60;99.90;;;;;;5065527;28;20055;-65
2024/03/22 05:47:05;;;;;;;14.88;7.15;;;9.70;99.90;;;;;;5066252;28;20036;-65
2024/03/22 05:49:31;;;;;;;14.57;7.68;;;9.80;99.90;;;;;;5069597;28;20031;-65
2024/03/22 05:51:57;;;;;;;12.13;6.53;;;9.80;99.90;;;;;;5068199;28;20032;-65
2024/03/22 05:54:23;;;;;;;16.60;7.60;;;9.80;99.90;;;;;;5059061;28;20442;-65
2024/03/22 05:56:49;;;;;;;15.25;7.30;;;9.90;99.90;;;;;;5066303;28;20139;-66
2024/03/22 05:59:14;;;;;;;15.07;7.45;;;10.00;99.90;;;;;;5070091;28;20039;-66
2024/03/22 06:01:40;;;;;;;13.55;7.68;;;9.90;99.90;;;;;;5066191;28;20024;-65
2024/03/22 06:04:06;;;;;;;18.08;8.63;;;9.90;99.90;;;;;;5067745;28;20054;-66
2024/03/22 06:06:35;;;;;;;13.43;7.55;;;9.80;99.90;;;;;;5071756;28;20025;-66
2024/03/22 06:09:09;;;;;;;17.92;8.90;;;9.90;99.90;;;;;;5068538;28;20029;-66
2024/03/22 06:11:35;;;;;;;15.75;8.45;;;9.90;99.90;;;;;;5062139;28;20050;-65
2024/03/22 06:14:01;;;;;;;19.55;8.55;;;9.80;99.90;;;;;;5070122;28;20804;-66
2024/03/22 06:16:26;;;;;;;19.52;9.27;;;9.80;99.90;;;;;;5073680;28;20032;-65
2024/03/22 06:18:52;;;;;;;20.30;8.70;;;9.90;99.90;;;;;;5065545;28;20058;-65
2024/03/22 06:21:25;;;;;;;17.63;8.35;;;9.80;99.90;;;;;;5064604;28;20029;-65
2024/03/22 06:23:52;;;;;;;21.27;9.65;;;9.70;99.90;;;;;;5068340;28;20112;-66
2024/03/22 06:26:18;;;;;;;19.35;9.63;;;9.70;99.90;;;;;;5068378;28;20035;-65
2024/03/22 06:28:44;;;;;;;18.85;9.57;;;9.60;99.90;;;;;;5062968;28;20182;-65
2024/03/22 06:31:09;;;;;;;18.27;9.75;;;9.50;99.90;;;;;;5067215;28;20884;-65
2024/03/22 06:33:35;;;;;;;18.90;9.60;;;9.50;99.90;;;;;;5068483;28;20059;-64
2024/03/22 06:36:03;;;;;;;21.70;8.80;;;9.50;99.90;;;;;;5057698;28;20059;-67
2024/03/22 06:38:29;;;;;;;21.20;9.95;;;9.60;99.90;;;;;;5066947;28;20043;-65
2024/03/22 06:40:54;;;;;;;17.58;9.45;;;9.80;99.90;;;;;;5068555;28;20079;-65
2024/03/22 06:43:20;;;;;;;21.88;11.23;;;9.70;99.90;;;;;;5069106;28;20028;-65
2024/03/22 06:45:46;;;;;;;27.52;11.30;;;9.80;99.90;;;;;;5061311;28;20408;-64
2024/03/22 06:48:12;;;;;;;22.33;11.07;;;9.80;99.90;;;;;;5067705;28;20111;-65
2024/03/22 06:50:37;;;;;;;23.80;10.90;;;10.00;99.90;;;;;;5071057;28;20514;-65
2024/03/22 06:53:04;;;;;;;24.70;11.02;;;10.00;99.90;;;;;;5063344;28;20527;-67
2024/03/22 06:55:30;;;;;;;26.77;13.05;;;10.10;99.90;;;;;;5067595;28;20024;-66
2024/03/22 06:57:55;;;;;;;21.15;10.93;;;10.20;99.90;;;;;;5067894;28;20433;-65
2024/03/22 07:00:21;;;;;;;23.45;11.02;;;10.20;99.90;;;;;;5066976;28;20373;-65
2024/03/22 07:02:47;;;;;;;24.80;10.93;;;10.20;99.90;;;;;;5056978;28;20446;-65
2024/03/22 07:05:13;;;;;;;21.63;10.63;;;10.30;99.90;;;;;;5068087;28;20024;-65
2024/03/22 07:07:38;;;;;;;25.10;11.85;;;10.40;99.90;;;;;;5070683;28;20055;-64
2024/03/22 07:10:08;;;;;;;22.75;10.00;;;10.30;99.90;;;;;;5069723;28;20028;-65
2024/03/22 07:12:34;;;;;;;25.63;10.82;;;10.40;99.90;;;;;;5064259;28;20040;-65
2024/03/22 07:15:01;;;;;;;22.83;10.65;;;10.60;99.90;;;;;;5068704;28;20032;-65
2024/03/22 07:17:27;;;;;;;21.58;10.50;;;10.70;99.90;;;;;;5064833;28;20028;-64
2024/03/22 07:19:53;;;;;;;20.58;10.75;;;10.80;99.90;;;;;;5061302;28;20038;-65
2024/03/22 07:22:20;;;;;;;23.02;11.32;;;10.90;99.90;;;;;;5062896;28;20505;-65
2024/03/22 07:24:47;;;;;;;21.95;11.02;;;11.00;99.90;;;;;;5064098;28;20020;-65
2024/03/22 07:27:16;;;;;;;20.23;11.50;;;11.10;99.90;;;;;;5061571;28;20119;-65
2024/03/22 07:29:42;;;;;;;23.27;11.45;;;11.00;99.90;;;;;;5068298;28;20047;-65
2024/03/22 07:32:08;;;;;;;20.90;10.98;;;11.00;99.90;;;;;;5060316;28;20036;-66
2024/03/22 07:34:33;;;;;;;23.77;10.95;;;11.20;99.90;;;;;;5062895;28;20060;-66
2024/03/22 07:36:59;;;;;;;26.50;14.07;;;10.90;99.90;;;;;;5061437;28;20127;-66
2024/03/22 07:39:26;;;;;;;22.88;11.20;;;10.70;99.90;;;;;;5065203;28;20036;-66
2024/03/22 07:41:51;;;;;;;22.38;11.05;;;10.70;99.90;;;;;;5063285;28;20043;-66
2024/03/22 07:44:19;;;;;;;21.05;10.98;;;10.70;99.90;;;;;;5060557;28;20035;-65
2024/03/22 07:46:45;;;;;;;26.15;11.13;;;10.60;99.90;;;;;;5066081;28;20020;-66
2024/03/22 07:49:14;;;;;;;29.45;12.45;;;10.60;99.90;;;;;;5063138;28;20029;-65
2024/03/22 07:51:40;;;;;;;24.30;11.60;;;10.70;99.90;;;;;;5057593;28;20024;-65
2024/03/22 07:54:06;;;;;;;22.67;12.27;;;10.80;99.90;;;;;;5063702;28;20070;-66
2024/03/22 07:56:31;;;;;;;25.30;11.57;;;10.90;99.90;;;;;;5068345;28;20039;-66
2024/03/22 07:58:57;;;;;;;22.50;10.45;;;10.80;99.90;;;;;;5068591;28;20035;-66
2024/03/22 08:01:23;;;;;;;20.02;10.43;;;10.90;99.90;;;;;;5066126;28;20019;-66
2024/03/22 08:03:50;;;;;;;19.55;10.13;;;11.10;99.90;;;;;;5061626;28;20564;-65
2024/03/22 08:06:16;;;;;;;24.63;10.50;;;11.10;99.90;;;;;;5065736;28;20427;-65
2024/03/22 08:08:42;;;;;;;22.30;11.48;;;11.20;99.90;;;;;;5062408;28;20028;-66
2024/03/22 08:11:09;;;;;;;22.50;10.98;;;11.20;99.90;;;;;;5057274;28;20825;-66
2024/03/22 08:13:35;;;;;;;19.88;10.60;;;11.20;99.90;;;;;;5060410;28;20036;-66
2024/03/22 08:16:01;;;;;;;20.90;10.85;;;11.20;99.90;;;;;;5063576;28;20025;-66
2024/03/22 08:18:27;;;;;;;21.00;10.77;;;11.10;99.90;;;;;;5059586;28;20037;-66
2024/03/22 08:20:52;;;;;;;49.63;22.77;;;11.10;99.90;;;;;;5068354;28;20037;-66
2024/03/22 08:23:22;;;;;;;150.77;84.32;;;11.30;99.90;;;;;;5062500;28;20033;-66
2024/03/22 08:25:48;;;;;;;32.15;21.27;;;11.30;99.90;;;;;;5066977;28;20033;-67
2024/03/22 08:28:15;;;;;;;22.40;10.82;;;11.40;99.90;;;;;;5066993;28;20112;-66
2024/03/22 08:30:42;;;;;;;22.60;11.93;;;11.40;99.90;;;;;;5063527;28;20052;-66
2024/03/22 08:33:08;;;;;;;22.75;11.50;;;11.50;99.90;;;;;;5057981;28;20036;-67
2024/03/22 08:35:33;;;;;;;19.40;11.02;;;11.50;99.90;;;;;;5058402;28;20039;-65
2024/03/22 08:38:00;;;;;;;23.15;12.02;;;11.60;99.90;;;;;;5061895;28;20803;-66
2024/03/22 08:40:27;;;;;;;19.98;10.23;;;11.60;99.90;;;;;;5066201;28;20106;-65
2024/03/22 08:42:52;;;;;;;21.90;11.50;;;11.60;99.90;;;;;;5063944;28;21763;-66
2024/03/22 08:45:18;;;;;;;21.50;10.27;;;11.40;99.90;;;;;;5075531;28;20024;-66
2024/03/22 08:47:47;;;;;;;22.25;10.43;;;11.30;99.90;;;;;;5073458;28;20085;-66
2024/03/22 08:50:13;;;;;;;24.08;10.40;;;11.20;99.90;;;;;;5068923;28;20024;-66
2024/03/22 08:52:39;;;;;;;25.58;10.88;;;11.20;99.90;;;;;;5067731;28;20031;-65
2024/03/22 08:55:07;;;;;;;28.42;11.50;;;11.30;99.90;;;;;;5069772;28;20053;-66
2024/03/22 08:57:33;;;;;;;20.08;10.40;;;11.50;99.90;;;;;;5068801;28;20038;-66
2024/03/22 08:59:59;;;;;;;23.00;11.95;;;11.70;99.90;;;;;;5067537;28;20036;-66
2024/03/22 09:02:26;;;;;;;24.27;10.20;;;11.90;99.90;;;;;;5071964;28;20027;-66
2024/03/22 09:04:53;;;;;;;18.00;9.55;;;12.10;99.90;;;;;;5062914;28;20040;-66
2024/03/22 09:07:18;;;;;;;23.83;11.75;;;12.20;99.90;;;;;;5072461;28;20024;-66
2024/03/22 09:09:44;;;;;;;25.60;11.88;;;12.20;99.90;;;;;;5065810;28;20495;-66
2024/03/22 09:12:10;;;;;;;19.45;9.55;;;12.10;99.90;;;;;;5068337;28;20024;-65
2024/03/22 09:14:36;;;;;;;18.92;9.25;;;11.90;99.90;;;;;;5064119;28;20024;-67
2024/03/22 09:17:02;;;;;;;23.20;9.50;;;11.90;99.90;;;;;;5063894;28;20062;-67
2024/03/22 09:19:27;;;;;;;24.30;10.65;;;12.00;99.90;;;;;;5073251;28;20044;-67
2024/03/22 09:21:53;;;;;;;25.77;12.10;;;11.80;99.90;;;;;;5071378;28;20032;-67
2024/03/22 09:24:20;;;;;;;25.73;11.73;;;11.80;99.90;;;;;;5082069;28;20691;-67
2024/03/22 09:26:45;;;;;;;20.92;9.38;;;11.70;99.90;;;;;;5088017;28;20050;-66
2024/03/22 09:29:13;;;;;;;21.00;10.52;;;11.80;99.90;;;;;;5094362;28;20663;-67
2024/03/22 09:31:39;;;;;;;15.50;8.68;;;11.80;99.90;;;;;;5091357;28;20577;-66
2024/03/22 09:34:05;;;;;;;20.15;10.48;;;11.70;99.90;;;;;;5082129;28;20028;-67
2024/03/22 09:36:35;;;;;;;18.95;9.50;;;11.80;99.90;;;;;;5090555;28;20024;-71
2024/03/22 09:39:01;;;;;;;14.80;8.57;;;12.10;99.90;;;;;;5095084;28;20171;-72
2024/03/22 09:41:30;;;;;;;15.65;9.23;;;12.40;99.90;;;;;;5087221;28;20055;-72
2024/03/22 09:44:00;;;;;;;18.38;9.48;;;12.60;99.90;;;;;;5086551;28;20064;-66
2024/03/22 09:46:27;;;;;;;19.73;9.32;;;12.50;99.90;;;;;;5091029;28;20537;-66
2024/03/22 09:48:54;;;;;;;17.20;8.80;;;12.30;99.90;;;;;;5086944;28;20036;-67
2024/03/22 09:51:21;;;;;;;20.30;9.63;;;12.10;99.90;;;;;;5090821;28;20024;-71
2024/03/22 09:53:53;;;;;;;17.42;9.02;;;12.30;99.90;;;;;;5087777;28;20036;-67
2024/03/22 09:56:21;;;;;;;16.67;9.32;;;12.30;99.90;;;;;;5085964;28;20032;-65
2024/03/22 09:58:47;;;;;;;20.95;9.82;;;12.40;99.90;;;;;;5086124;28;20031;-67
2024/03/22 10:01:13;;;;;;;21.02;10.43;;;12.40;99.90;;;;;;5087890;28;20079;-67
2024/03/22 10:03:39;;;;;;;18.20;10.00;;;12.50;99.90;;;;;;5086367;28;20038;-67
2024/03/22 10:06:06;;;;;;;18.50;9.23;;;12.50;99.90;;;;;;5086442;28;20019;-67
2024/03/22 10:08:32;;;;;;;18.63;9.38;;;12.60;99.90;;;;;;5084135;28;20032;-67
2024/03/22 10:11:01;;;;;;;15.57;8.77;;;12.70;99.90;;;;;;5090196;28;20023;-66
2024/03/22 10:13:27;;;;;;;15.50;8.68;;;12.60;99.90;;;;;;5087873;28;20027;-68
2024/03/22 10:15:53;;;;;;;14.77;9.20;;;12.60;99.90;;;;;;5088673;28;20094;-66
2024/03/22 10:18:19;;;;;;;16.48;8.98;;;12.80;99.90;;;;;;5091327;28;20140;-65
2024/03/22 10:20:45;;;;;;;17.27;8.15;;;12.80;99.90;;;;;;5085765;28;20028;-66
2024/03/22 10:23:10;;;;;;;17.50;8.68;;;12.90;99.90;;;;;;5086520;28;20054;-66
2024/03/22 10:25:36;;;;;;;18.20;8.43;;;13.10;99.90;;;;;;5089483;28;20179;-66
2024/03/22 10:28:03;;;;;;;20.23;9.15;;;13.10;99.90;;;;;;5081349;28;20028;-67
2024/03/22 10:30:30;;;;;;;15.90;7.75;;;13.40;99.90;;;;;;5085754;28;20028;-66
2024/03/22 10:32:56;;;;;;;17.48;9.23;;;13.60;99.90;;;;;;5083874;28;20135;-66
2024/03/22 10:35:25;;;;;;;17.15;8.88;;;13.80;99.90;;;;;;5082606;28;20070;-65
2024/03/22 10:37:52;;;;;;;18.13;8.52;;;13.60;99.90;;;;;;5093866;28;20483;-65
2024/03/22 10:40:18;;;;;;;16.65;8.25;;;13.80;99.90;;;;;;5083169;28;20047;-66
2024/03/22 10:42:44;;;;;;;16.55;9.63;;;14.20;99.90;;;;;;5077684;28;20547;-66
2024/03/22 10:45:12;;;;;;;14.70;8.85;;;14.30;99.90;;;;;;5094658;28;20028;-66
2024/03/22 10:47:39;;;;;;;15.82;8.73;;;14.40;99.90;;;;;;5092997;28;20028;-66
2024/03/22 10:50:10;;;;;;;14.10;8.05;;;14.30;99.90;;;;;;5087524;28;20020;-66
2024/03/22 10:52:50;;;;;;;16.35;8.45;;;14.30;99.90;;;;;;5089734;28;20132;-66
2024/03/22 10:55:24;;;;;;;17.17;8.80;;;14.20;99.90;;;;;;5085641;28;20028;-66
2024/03/22 10:57:50;;;;;;;15.50;8.70;;;14.00;99.90;;;;;;5085757;28;20028;-66
2024/03/22 11:00:26;;;;;;;21.27;9.43;;;14.00;99.90;;;;;;5082646;28;20111;-66
2024/03/22 11:02:55;;;;;;;18.75;8.32;;;13.90;99.90;;;;;;5095210;28;20028;-66
2024/03/22 11:05:21;;;;;;;15.95;8.57;;;13.90;99.90;;;;;;5080553;28;20035;-65
2024/03/22 11:07:46;;;;;;;15.00;8.13;;;14.00;99.90;;;;;;5085890;28;20028;-66
2024/03/22 11:10:13;;;;;;;17.27;8.65;;;14.20;99.90;;;;;;5087540;28;20036;-66
2024/03/22 11:12:42;;;;;;;18.25;9.15;;;14.10;99.90;;;;;;5088458;28;20035;-66
2024/03/22 11:15:12;;;;;;;15.93;8.38;;;14.00;99.90;;;;;;5086365;28;20114;-66
2024/03/22 11:17:38;;;;;;;16.88;9.73;;;14.00;99.90;;;;;;5086340;28;20031;-66
2024/03/22 11:20:05;;;;;;;15.10;8.80;;;14.00;99.90;;;;;;5086565;28;20035;-66
2024/03/22 11:22:31;;;;;;;16.55;8.82;;;14.10;99.90;;;;;;5086140;28;20139;-66
2024/03/22 11:24:57;;;;;;;20.42;9.02;;;14.00;99.90;;;;;;5081122;28;20036;-66
2024/03/22 11:27:23;;;;;;;21.23;10.13;;;14.00;99.90;;;;;;5086748;28;20123;-65
2024/03/22 11:29:51;;;;;;;19.88;9.35;;;14.10;99.90;;;;;;5081892;28;20032;-65
2024/03/22 11:32:17;;;;;;;20.17;8.38;;;14.10;99.90;;;;;;5082385;28;20024;-65
2024/03/22 11:34:44;;;;;;;17.98;9.10;;;14.10;99.90;;;;;;5087789;28;20020;-65
2024/03/22 11:37:10;;;;;;;16.88;9.30;;;14.00;99.90;;;;;;5089908;28;20499;-66
2024/03/22 11:39:39;;;;;;;21.73;8.75;;;14.20;99.90;;;;;;5080436;28;20036;-70
2024/03/22 11:42:06;;;;;;;16.98;8.35;;;14.10;99.90;;;;;;5083642;28;20152;-65
2024/03/22 11:44:35;;;;;;;13.35;7.22;;;14.00;99.90;;;;;;5088416;28;20031;-65
2024/03/22 11:47:03;;;;;;;17.73;8.48;;;13.90;99.90;;;;;;5082797;28;20055;-65
2024/03/22 11:49:29;;;;;;;18.42;9.60;;;14.00;99.90;;;;;;5074663;28;20047;-65
2024/03/22 11:51:56;;;;;;;15.80;8.13;;;14.10;99.90;;;;;;5083682;28;20063;-65
2024/03/22 11:54:26;;;;;;;14.85;8.23;;;14.30;99.90;;;;;;5087788;28;20478;-64
2024/03/22 11:56:55;;;;;;;17.90;9.48;;;14.40;99.90;;;;;;5085689;28;20104;-66
2024/03/22 11:59:21;;;;;;;14.43;8.40;;;14.60;99.90;;;;;;5081405;28;20031;-64
2024/03/22 12:01:47;;;;;;;22.65;11.38;;;14.60;99.90;;;;;;5083315;28;20036;-67
2024/03/22 12:04:15;;;;;;;24.17;12.40;;;14.70;99.90;;;;;;5081871;28;20119;-66
2024/03/22 12:06:47;;;;;;;30.00;14.95;;;14.70;99.90;;;;;;5079516;28;20024;-64
2024/03/22 12:09:13;;;;;;;36.67;18.65;;;14.70;99.90;;;;;;5098569;27;20044;-66
2024/03/22 12:11:40;;;;;;;42.13;20.30;;;14.70;99.90;;;;;;5086423;28;20020;-68
2024/03/22 12:14:06;;;;;;;32.90;17.20;;;14.60;99.90;;;;;;5083543;28;20100;-66
2024/03/22 12:16:32;;;;;;;31.67;15.57;;;14.60;99.90;;;;;;5088128;28;20646;-67
2024/03/22 12:18:58;;;;;;;33.45;15.48;;;14.60;99.90;;;;;;5082780;28;20038;-66
2024/03/22 12:21:24;;;;;;;38.80;15.65;;;14.60;99.90;;;;;;5079513;28;20144;-65
2024/03/22 12:23:50;;;;;;;22.10;11.00;;;14.60;99.90;;;;;;5080905;28;20479;-64
2024/03/22 12:26:16;;;;;;;19.63;10.73;;;14.50;99.90;;;;;;5085837;28;20042;-65
2024/03/22 12:28:43;;;;;;;22.17;9.80;;;14.40;99.90;;;;;;5081644;28;20026;-65
2024/03/22 12:31:12;;;;;;;18.40;8.80;;;14.30;99.90;;;;;;5082311;28;20028;-65
2024/03/22 12:33:38;;;;;;;14.50;6.70;;;14.10;99.90;;;;;;5069414;28;20039;-65